Terminal Aerodrome Forecast
Issued by NWS

Home | Current Version | Previous Version | Text Only | Print | Product List | Glossary Off
Versions: 1 2 3 4 5 6 7 8 9 10 11 12 13

000
FTUS43 KMPX 301736
TAFAXN
TAF
KAXN 301736Z 3018/3118 15008KT P6SM SCT200
     FM310300 14006KT P6SM SCT150
     FM311400 16009KT P6SM BKN120=

USA.gov is the U.S. government's official web portal to all federal, state and local government web resources and services.